Time;durP1;ratioP1;P1;durP2;ratioP2;P2;SDS_P1;SDS_P2;PMS_P1;PMS_P2;Temp;Humidity;BMP_temperature;BMP_pressure;BME280_temperature;BME280_humidity;BME280_pressure;Samples;Min_cycle;Max_cycle;Signal;HPM_P1;HPM_P2
2022/03/13 00:00:15;;;;;;;14.00;8.88;;;11.90;72.50;;;;;;6108609;23;20329;-84
2022/03/13 00:02:41;;;;;;;14.38;9.63;;;11.90;72.60;;;;;;6155058;23;20005;-84
2022/03/13 00:05:14;;;;;;;16.30;9.32;;;11.90;72.50;;;;;;6129749;23;20010;-84
2022/03/13 00:07:42;;;;;;;14.30;8.65;;;11.90;72.60;;;;;;6155456;23;20288;-83
2022/03/13 00:10:08;;;;;;;13.82;8.55;;;11.90;72.90;;;;;;6130167;23;20099;-85
2022/03/13 00:12:34;;;;;;;14.20;9.18;;;11.90;72.90;;;;;;6129213;23;20415;-83
2022/03/13 00:15:05;;;;;;;13.52;9.10;;;11.90;73.00;;;;;;6128409;23;20010;-84
2022/03/13 00:17:31;;;;;;;12.45;8.95;;;11.90;72.80;;;;;;6128691;23;20010;-84
2022/03/13 00:20:01;;;;;;;13.45;9.30;;;11.90;72.80;;;;;;6129207;23;20116;-84
2022/03/13 00:22:28;;;;;;;12.00;8.37;;;11.90;72.70;;;;;;6105567;23;20012;-84
2022/03/13 00:24:54;;;;;;;12.85;8.10;;;11.90;72.80;;;;;;6128731;23;20288;-84
2022/03/13 00:27:21;;;;;;;12.65;9.13;;;11.90;72.80;;;;;;6128821;23;20376;-85
2022/03/13 00:29:47;;;;;;;15.35;9.45;;;11.90;72.80;;;;;;6104935;23;20010;-84
2022/03/13 00:32:13;;;;;;;12.90;8.93;;;11.90;72.70;;;;;;6129088;23;20006;-84
2022/03/13 00:34:38;;;;;;;12.70;8.40;;;11.80;72.80;;;;;;6106913;23;20012;-84
2022/03/13 00:37:04;;;;;;;13.07;8.65;;;11.70;72.70;;;;;;6133811;23;20495;-84
2022/03/13 00:39:30;;;;;;;10.65;7.40;;;11.70;72.80;;;;;;6136932;23;20013;-84
2022/03/13 00:41:55;;;;;;;11.07;6.93;;;11.70;73.40;;;;;;6110938;23;20351;-84
2022/03/13 00:44:22;;;;;;;10.15;6.70;;;11.70;73.80;;;;;;6158975;23;20408;-83
2022/03/13 00:46:48;;;;;;;10.82;6.20;;;11.70;74.00;;;;;;6158478;23;20061;-84
2022/03/13 00:49:13;;;;;;;9.98;6.32;;;11.70;74.10;;;;;;6132322;23;20379;-84
2022/03/13 00:51:39;;;;;;;10.05;6.68;;;11.70;74.50;;;;;;6153954;23;20361;-84
2022/03/13 00:54:05;;;;;;;11.00;6.88;;;11.70;74.70;;;;;;6103838;23;20009;-83
2022/03/13 00:56:31;;;;;;;10.10;6.70;;;11.70;74.50;;;;;;6104054;23;20014;-83
2022/03/13 00:58:57;;;;;;;9.43;6.13;;;11.70;74.70;;;;;;6103892;23;20024;-84
2022/03/13 01:01:23;;;;;;;8.93;6.20;;;11.70;74.60;;;;;;6128968;23;20376;-84
2022/03/13 01:03:53;;;;;;;10.15;6.90;;;11.70;74.70;;;;;;6140192;23;20016;-83
2022/03/13 01:06:20;;;;;;;9.57;6.10;;;11.80;75.00;;;;;;6157979;23;20005;-84
2022/03/13 01:08:47;;;;;;;9.93;5.90;;;11.80;75.00;;;;;;6154157;23;20144;-84
2022/03/13 01:11:18;;;;;;;9.18;5.88;;;11.80;75.10;;;;;;6129380;23;20029;-84
2022/03/13 01:13:44;;;;;;;11.77;7.63;;;11.90;75.00;;;;;;6104190;23;20009;-85
2022/03/13 01:16:13;;;;;;;10.68;7.55;;;11.80;74.60;;;;;;6127699;23;20329;-85
2022/03/13 01:18:51;;;;;;;11.68;8.45;;;11.90;74.50;;;;;;6127464;23;20054;-84
2022/03/13 01:21:17;;;;;;;13.23;8.00;;;11.90;74.40;;;;;;6153873;23;20001;-85
2022/03/13 01:24:00;;;;;;;15.32;9.65;;;11.90;74.50;;;;;;6153956;23;20036;-84
2022/03/13 01:26:25;;;;;;;14.43;9.63;;;11.80;74.50;;;;;;6129060;23;20491;-83
2022/03/13 01:28:53;;;;;;;15.32;9.90;;;11.80;74.60;;;;;;6130051;23;20033;-84
2022/03/13 01:31:28;;;;;;;13.57;9.75;;;11.80;74.60;;;;;;6156055;23;20012;-84
2022/03/13 01:33:54;;;;;;;15.25;9.52;;;11.80;74.70;;;;;;6121228;23;20042;-83
2022/03/13 01:36:20;;;;;;;14.30;9.40;;;11.80;74.60;;;;;;6130009;23;20013;-85
2022/03/13 01:38:46;;;;;;;13.30;9.65;;;11.80;74.70;;;;;;6130040;23;20008;-82
2022/03/13 01:41:12;;;;;;;18.25;9.82;;;11.90;74.80;;;;;;6129876;23;20034;-84
2022/03/13 01:43:38;;;;;;;15.27;10.18;;;11.90;74.60;;;;;;6156285;23;20005;-84
2022/03/13 01:46:04;;;;;;;16.80;11.25;;;11.80;74.50;;;;;;6105193;23;20364;-85
2022/03/13 01:48:38;;;;;;;16.58;10.85;;;11.90;74.30;;;;;;6129636;23;20002;-83
2022/03/13 01:51:05;;;;;;;16.88;11.13;;;11.80;74.20;;;;;;6129538;23;20028;-84
2022/03/13 01:53:32;;;;;;;15.45;10.60;;;11.80;74.30;;;;;;6155759;23;20084;-83
2022/03/13 01:55:58;;;;;;;18.73;10.90;;;11.80;74.20;;;;;;6155646;23;20021;-85
2022/03/13 01:58:24;;;;;;;18.02;11.23;;;11.80;74.20;;;;;;6128946;23;20076;-86
2022/03/13 02:00:50;;;;;;;18.65;11.15;;;11.80;74.10;;;;;;6105435;23;20056;-84
2022/03/13 02:03:16;;;;;;;19.00;12.20;;;11.70;74.00;;;;;;6129793;23;20013;-84
2022/03/13 02:05:45;;;;;;;17.40;11.73;;;11.70;73.90;;;;;;6130067;23;20301;-85
2022/03/13 02:08:19;;;;;;;20.73;12.27;;;11.70;74.20;;;;;;6131130;23;20005;-84
2022/03/13 02:10:45;;;;;;;18.73;12.65;;;11.60;74.30;;;;;;6128737;23;19997;-85
2022/03/13 02:13:15;;;;;;;20.45;13.50;;;11.60;74.50;;;;;;6106122;23;20006;-84
2022/03/13 02:15:41;;;;;;;21.25;13.80;;;11.50;74.50;;;;;;6129486;23;20005;-84
2022/03/13 02:18:07;;;;;;;20.52;14.32;;;11.50;74.70;;;;;;6130257;23;20061;-84
2022/03/13 02:20:44;;;;;;;20.70;13.60;;;11.50;75.60;;;;;;6130059;23;20534;-84
2022/03/13 02:23:23;;;;;;;19.98;13.57;;;11.40;75.20;;;;;;6105431;23;20005;-84
2022/03/13 02:25:52;;;;;;;20.13;13.20;;;11.40;75.30;;;;;;6129243;23;20006;-84
2022/03/13 02:28:23;;;;;;;20.80;14.43;;;11.30;75.90;;;;;;6156334;23;20002;-84
2022/03/13 02:30:51;;;;;;;24.00;14.98;;;11.30;75.50;;;;;;6129246;23;20002;-86
2022/03/13 02:33:19;;;;;;;20.27;14.18;;;11.20;75.80;;;;;;6129033;23;20013;-84
2022/03/13 02:35:52;;;;;;;22.98;15.68;;;11.20;76.00;;;;;;6129459;23;20005;-84
2022/03/13 02:38:18;;;;;;;19.55;14.55;;;11.10;75.90;;;;;;6129340;23;20421;-83
2022/03/13 02:40:44;;;;;;;20.05;15.00;;;11.10;76.00;;;;;;6155930;23;20027;-83
2022/03/13 02:43:10;;;;;;;19.50;14.90;;;11.00;75.90;;;;;;6129901;23;20002;-84
2022/03/13 02:45:38;;;;;;;21.00;15.23;;;11.00;76.10;;;;;;6129078;23;20361;-84
2022/03/13 02:48:06;;;;;;;23.70;14.57;;;10.90;76.10;;;;;;6129003;23;20001;-84
2022/03/13 02:50:33;;;;;;;23.13;14.65;;;10.90;76.10;;;;;;6155626;23;19998;-85
2022/03/13 02:53:00;;;;;;;18.90;13.73;;;10.90;76.30;;;;;;6130124;23;20013;-85
2022/03/13 02:55:26;;;;;;;19.30;14.13;;;10.80;76.20;;;;;;6108233;23;20085;-84
2022/03/13 02:57:52;;;;;;;19.08;13.27;;;10.70;76.40;;;;;;6175009;23;20004;-84
2022/03/13 03:00:20;;;;;;;19.88;13.15;;;10.70;76.70;;;;;;6151623;23;20001;-84
2022/03/13 03:02:46;;;;;;;19.17;13.88;;;10.60;76.70;;;;;;6155248;23;20080;-83
2022/03/13 03:05:11;;;;;;;21.00;14.10;;;10.50;76.80;;;;;;6157234;23;20020;-85
2022/03/13 03:07:38;;;;;;;20.85;14.60;;;10.50;77.20;;;;;;6180059;23;19982;-85
2022/03/13 03:10:05;;;;;;;22.13;14.13;;;10.40;77.10;;;;;;6154801;23;20001;-85
2022/03/13 03:12:31;;;;;;;20.40;13.65;;;10.40;77.10;;;;;;6123215;23;20085;-87
2022/03/13 03:14:57;;;;;;;20.15;13.60;;;10.40;77.20;;;;;;6137185;23;20009;-84
2022/03/13 03:17:22;;;;;;;21.45;13.20;;;10.40;77.10;;;;;;6106259;23;20438;-84
2022/03/13 03:19:48;;;;;;;17.88;13.18;;;10.40;77.00;;;;;;6130372;23;20070;-84
2022/03/13 03:22:15;;;;;;;22.08;14.15;;;10.40;77.10;;;;;;6129991;23;20017;-84
2022/03/13 03:24:41;;;;;;;17.55;13.18;;;10.40;77.30;;;;;;6135561;23;19998;-86
2022/03/13 03:27:07;;;;;;;20.52;13.95;;;10.30;77.10;;;;;;6164379;23;20017;-84
2022/03/13 03:29:33;;;;;;;18.85;12.82;;;10.30;77.20;;;;;;6107082;23;20009;-84
2022/03/13 03:31:59;;;;;;;19.70;13.45;;;10.30;77.40;;;;;;6105511;23;20014;-84
2022/03/13 03:34:27;;;;;;;19.25;14.20;;;10.40;77.10;;;;;;6104251;23;20701;-84
2022/03/13 03:36:56;;;;;;;21.92;13.93;;;10.40;77.30;;;;;;6128916;23;20083;-84
2022/03/13 03:39:23;;;;;;;19.90;13.82;;;10.40;77.20;;;;;;6104517;23;20009;-84
2022/03/13 03:41:51;;;;;;;18.80;13.68;;;10.40;77.50;;;;;;6129054;23;20447;-84
2022/03/13 03:44:17;;;;;;;20.35;13.95;;;10.40;77.30;;;;;;6104527;23;20017;-84
2022/03/13 03:46:44;;;;;;;19.45;13.65;;;10.30;77.40;;;;;;6103757;23;20088;-84
2022/03/13 03:49:10;;;;;;;19.73;13.27;;;10.30;77.70;;;;;;6154429;23;20012;-86
2022/03/13 03:51:37;;;;;;;22.10;13.88;;;10.30;77.60;;;;;;6129138;23;20057;-84
2022/03/13 03:54:04;;;;;;;22.73;13.65;;;10.30;77.50;;;;;;6155583;23;20001;-84
2022/03/13 03:56:30;;;;;;;21.30;12.98;;;10.30;77.40;;;;;;6129289;23;20084;-84
2022/03/13 03:58:56;;;;;;;20.23;13.00;;;10.30;77.30;;;;;;6105002;23;20044;-84
2022/03/13 04:01:22;;;;;;;20.10;13.88;;;10.30;77.40;;;;;;6129339;23;20427;-84
2022/03/13 04:03:48;;;;;;;22.05;13.02;;;10.30;77.30;;;;;;6129527;23;20072;-84
2022/03/13 04:06:15;;;;;;;19.10;14.07;;;10.30;77.40;;;;;;6130003;23;20053;-84
2022/03/13 04:08:41;;;;;;;19.38;14.25;;;10.20;77.40;;;;;;6158085;23;20435;-84
2022/03/13 04:11:08;;;;;;;17.33;12.35;;;10.20;77.40;;;;;;6158945;23;20053;-83
2022/03/13 04:13:37;;;;;;;18.70;13.18;;;10.20;77.10;;;;;;6159135;23;20186;-84
2022/03/13 04:16:04;;;;;;;19.23;13.13;;;10.20;77.10;;;;;;6131126;23;20010;-84
2022/03/13 04:18:30;;;;;;;17.63;12.60;;;10.30;77.40;;;;;;6108526;23;20020;-84
2022/03/13 04:20:55;;;;;;;19.65;13.45;;;10.30;77.30;;;;;;6157083;23;20424;-83
2022/03/13 04:23:21;;;;;;;18.35;12.70;;;10.30;76.90;;;;;;6130055;23;20082;-83
2022/03/13 04:25:47;;;;;;;20.65;12.90;;;10.30;76.90;;;;;;6080501;23;20479;-83
2022/03/13 04:28:13;;;;;;;19.27;13.07;;;10.30;77.10;;;;;;6105242;23;20016;-84
2022/03/13 04:30:40;;;;;;;16.63;12.77;;;10.30;77.00;;;;;;6129051;23;20009;-83
2022/03/13 04:33:07;;;;;;;18.80;12.40;;;10.20;77.30;;;;;;6128710;23;20055;-83
2022/03/13 04:35:33;;;;;;;17.85;12.38;;;10.30;76.40;;;;;;6154826;23;20033;-84
2022/03/13 04:37:59;;;;;;;18.00;11.45;;;10.20;76.50;;;;;;6104813;23;20005;-83
2022/03/13 04:40:25;;;;;;;19.52;11.63;;;10.30;76.50;;;;;;6129067;23;20010;-83
2022/03/13 04:42:51;;;;;;;21.23;12.63;;;10.20;75.80;;;;;;6129336;23;20467;-83
2022/03/13 04:45:18;;;;;;;19.90;11.65;;;10.20;75.00;;;;;;6103737;23;20010;-84
2022/03/13 04:47:44;;;;;;;19.77;12.40;;;10.20;75.30;;;;;;6081824;23;20017;-85
2022/03/13 04:50:10;;;;;;;16.75;11.68;;;10.20;75.50;;;;;;6128706;23;20572;-85
2022/03/13 04:52:36;;;;;;;20.25;12.32;;;10.10;75.20;;;;;;6104762;23;20080;-86
2022/03/13 04:55:03;;;;;;;20.17;12.15;;;10.10;75.10;;;;;;6128327;23;20026;-86
2022/03/13 04:57:29;;;;;;;16.60;11.60;;;10.10;74.90;;;;;;6128767;23;20021;-85
2022/03/13 04:59:55;;;;;;;18.20;11.80;;;10.20;75.30;;;;;;6128099;23;20076;-84
2022/03/13 05:02:21;;;;;;;15.65;11.35;;;10.20;75.40;;;;;;6128745;23;20105;-83
2022/03/13 05:04:47;;;;;;;16.63;11.18;;;10.10;75.10;;;;;;6129327;23;20068;-84
2022/03/13 05:07:13;;;;;;;16.90;11.25;;;10.10;74.30;;;;;;6113279;23;20017;-83
2022/03/13 05:09:39;;;;;;;19.50;11.88;;;10.10;73.90;;;;;;6130175;23;20006;-85
2022/03/13 05:12:08;;;;;;;16.65;11.25;;;10.10;74.10;;;;;;6129479;23;20009;-85
2022/03/13 05:14:34;;;;;;;16.65;11.10;;;10.10;74.20;;;;;;6105851;23;20088;-85
2022/03/13 05:17:00;;;;;;;18.88;11.05;;;10.10;74.30;;;;;;6127896;23;20420;-85
2022/03/13 05:19:25;;;;;;;15.57;10.50;;;10.00;73.80;;;;;;6103752;23;20006;-82
2022/03/13 05:21:51;;;;;;;15.20;10.93;;;10.10;73.90;;;;;;6128567;23;20012;-85
2022/03/13 05:24:17;;;;;;;17.48;10.75;;;10.10;73.90;;;;;;6128154;23;20444;-85
2022/03/13 05:26:44;;;;;;;15.57;10.73;;;10.10;74.20;;;;;;6128535;23;20447;-83
2022/03/13 05:29:11;;;;;;;17.83;10.13;;;10.10;73.80;;;;;;6080451;23;20016;-83
2022/03/13 05:31:36;;;;;;;16.08;10.68;;;10.10;73.40;;;;;;6104286;23;20009;-85
2022/03/13 05:34:02;;;;;;;15.75;10.00;;;10.10;72.80;;;;;;6103812;23;20009;-85
2022/03/13 05:36:28;;;;;;;17.30;11.20;;;10.10;72.40;;;;;;6104158;23;20743;-83
2022/03/13 05:38:53;;;;;;;13.38;9.90;;;10.10;72.50;;;;;;6128635;23;20005;-84
2022/03/13 05:41:23;;;;;;;20.10;9.80;;;10.10;72.50;;;;;;6103668;23;20089;-84
2022/03/13 05:43:50;;;;;;;14.90;10.00;;;10.10;72.00;;;;;;6128779;23;20327;-84
2022/03/13 05:46:16;;;;;;;14.68;10.15;;;10.00;71.60;;;;;;6127821;23;20618;-84
2022/03/13 05:48:42;;;;;;;13.50;9.45;;;10.00;71.00;;;;;;6079853;23;20036;-84
2022/03/13 05:51:07;;;;;;;15.35;10.35;;;10.00;71.10;;;;;;6128340;23;20029;-85
2022/03/13 05:53:33;;;;;;;15.13;9.45;;;10.00;71.80;;;;;;6127588;23;20005;-82
2022/03/13 05:55:59;;;;;;;14.20;8.77;;;10.00;70.80;;;;;;6127918;23;20025;-83
2022/03/13 05:58:25;;;;;;;14.18;9.82;;;10.00;70.50;;;;;;6127894;23;20108;-83
2022/03/13 06:01:04;;;;;;;16.13;9.93;;;10.00;70.40;;;;;;6127999;23;20010;-82
2022/03/13 06:03:30;;;;;;;13.73;9.23;;;10.00;69.10;;;;;;6106401;23;20017;-82
2022/03/13 06:05:57;;;;;;;17.23;9.75;;;9.90;69.00;;;;;;6103736;23;20009;-84
2022/03/13 06:08:23;;;;;;;13.02;8.95;;;9.90;69.20;;;;;;6128253;23;20072;-83
2022/03/13 06:10:48;;;;;;;16.17;9.57;;;9.90;69.00;;;;;;6154164;23;20025;-84
2022/03/13 06:13:14;;;;;;;14.25;9.68;;;9.90;69.30;;;;;;6105820;23;20355;-84
2022/03/13 06:15:40;;;;;;;13.93;9.55;;;9.90;69.30;;;;;;6130127;23;20017;-84
2022/03/13 06:18:06;;;;;;;15.18;9.57;;;9.80;69.20;;;;;;6130162;23;20036;-84
2022/03/13 06:20:31;;;;;;;23.35;12.50;;;9.80;69.40;;;;;;6130765;23;20076;-83
2022/03/13 06:22:59;;;;;;;22.70;12.07;;;9.90;69.70;;;;;;6082266;23;20005;-83
2022/03/13 06:25:24;;;;;;;22.58;12.43;;;9.90;69.60;;;;;;6132228;23;20032;-83
2022/03/13 06:27:50;;;;;;;19.38;11.55;;;9.90;69.80;;;;;;6108122;23;20005;-83
2022/03/13 06:30:17;;;;;;;22.80;12.40;;;9.90;70.00;;;;;;6158577;23;20422;-84
2022/03/13 06:32:47;;;;;;;19.40;11.05;;;9.90;70.20;;;;;;6133278;23;20010;-83
2022/03/13 06:35:15;;;;;;;18.10;10.82;;;9.90;69.60;;;;;;6133586;23;20096;-83
2022/03/13 06:37:41;;;;;;;15.65;10.07;;;9.90;69.70;;;;;;6137925;23;20006;-84
2022/03/13 06:40:08;;;;;;;13.05;9.30;;;9.90;69.40;;;;;;6177173;23;19998;-84
2022/03/13 06:42:34;;;;;;;15.65;9.25;;;9.90;69.50;;;;;;6128208;23;20006;-84
2022/03/13 06:45:00;;;;;;;14.10;9.75;;;9.90;69.60;;;;;;6131155;23;20009;-86
2022/03/13 06:47:26;;;;;;;16.40;9.93;;;9.90;69.40;;;;;;6154046;23;20010;-83
2022/03/13 06:49:52;;;;;;;14.38;9.07;;;9.90;69.10;;;;;;6178248;23;20001;-84
2022/03/13 06:52:18;;;;;;;14.00;9.32;;;9.90;69.10;;;;;;6151187;23;20001;-87
2022/03/13 06:54:44;;;;;;;15.43;9.63;;;9.90;68.70;;;;;;6144478;23;20002;-83
2022/03/13 06:57:14;;;;;;;14.90;9.43;;;9.90;68.70;;;;;;6158897;23;20010;-83
2022/03/13 06:59:43;;;;;;;12.82;9.02;;;9.90;68.60;;;;;;6120685;23;20017;-83
2022/03/13 07:02:13;;;;;;;13.15;8.50;;;9.90;68.80;;;;;;6130818;23;20085;-84
2022/03/13 07:04:39;;;;;;;15.55;8.95;;;9.90;68.90;;;;;;6155948;23;20024;-83
2022/03/13 07:07:05;;;;;;;12.98;8.57;;;9.90;68.60;;;;;;6159764;23;20009;-84
2022/03/13 07:09:32;;;;;;;15.68;9.55;;;9.90;68.50;;;;;;6158112;23;19998;-83
2022/03/13 07:11:58;;;;;;;13.10;8.82;;;9.90;68.30;;;;;;6133154;23;20104;-84
2022/03/13 07:14:24;;;;;;;14.35;9.25;;;9.90;68.50;;;;;;6135093;23;20025;-84
2022/03/13 07:16:53;;;;;;;14.95;10.32;;;9.90;68.30;;;;;;6133778;23;20020;-84
2022/03/13 07:19:19;;;;;;;16.05;8.57;;;9.90;68.10;;;;;;6160062;23;20408;-83
2022/03/13 07:21:44;;;;;;;14.13;9.23;;;9.90;67.80;;;;;;6154397;23;20064;-83
2022/03/13 07:24:11;;;;;;;15.13;9.70;;;9.80;67.60;;;;;;6131614;23;20012;-84
2022/03/13 07:26:37;;;;;;;16.40;9.27;;;9.80;67.40;;;;;;6159296;23;20033;-84
2022/03/13 07:29:03;;;;;;;14.98;8.88;;;9.80;67.50;;;;;;6132736;23;20005;-84
2022/03/13 07:31:30;;;;;;;15.05;8.82;;;9.80;67.00;;;;;;6129663;23;20017;-84
2022/03/13 07:33:56;;;;;;;13.35;8.38;;;9.80;67.10;;;;;;6129837;23;20502;-84
2022/03/13 07:36:22;;;;;;;12.82;8.38;;;9.80;66.70;;;;;;6130417;23;20010;-84
2022/03/13 07:38:48;;;;;;;12.57;9.20;;;9.80;66.90;;;;;;6132816;23;20057;-84
2022/03/13 07:41:14;;;;;;;13.45;8.60;;;9.80;67.00;;;;;;6109906;23;20009;-84
2022/03/13 07:43:39;;;;;;;13.30;8.85;;;9.80;67.00;;;;;;6135248;23;20013;-84
2022/03/13 07:46:05;;;;;;;16.77;8.50;;;9.80;67.20;;;;;;6158025;23;20088;-84
2022/03/13 07:48:34;;;;;;;14.43;8.70;;;9.90;66.90;;;;;;6132312;23;20013;-84
2022/03/13 07:51:01;;;;;;;15.15;8.95;;;9.80;66.20;;;;;;6135183;23;20006;-83
2022/03/13 07:53:28;;;;;;;17.02;9.00;;;9.80;66.10;;;;;;6131626;23;20087;-84
2022/03/13 07:55:55;;;;;;;12.93;8.48;;;9.80;65.80;;;;;;6155372;23;20101;-83
2022/03/13 07:58:21;;;;;;;13.27;8.07;;;9.90;65.90;;;;;;6128699;23;20008;-83
2022/03/13 08:00:47;;;;;;;15.60;9.05;;;9.80;65.80;;;;;;6104342;23;20250;-83
2022/03/13 08:03:14;;;;;;;14.98;8.90;;;9.90;65.60;;;;;;6129170;23;20013;-85
2022/03/13 08:05:40;;;;;;;13.43;8.60;;;9.90;65.30;;;;;;6154828;23;20016;-84
2022/03/13 08:08:06;;;;;;;13.57;9.20;;;9.90;64.60;;;;;;6154538;23;20001;-84
2022/03/13 08:10:31;;;;;;;13.43;8.20;;;9.90;65.00;;;;;;6154472;23;20002;-83
2022/03/13 08:12:57;;;;;;;13.27;8.60;;;9.90;65.30;;;;;;6128919;23;20021;-83
2022/03/13 08:15:23;;;;;;;13.70;8.32;;;9.90;65.20;;;;;;6128477;23;20085;-84
2022/03/13 08:17:49;;;;;;;12.73;8.57;;;10.00;65.40;;;;;;6128672;23;20088;-83
2022/03/13 08:20:14;;;;;;;16.10;9.38;;;10.00;64.90;;;;;;6105291;23;20114;-83
2022/03/13 08:22:40;;;;;;;14.80;8.73;;;10.00;64.60;;;;;;6080682;23;20009;-84
2022/03/13 08:25:07;;;;;;;16.02;8.63;;;10.00;64.30;;;;;;6154663;23;20028;-83
2022/03/13 08:27:34;;;;;;;15.95;8.85;;;10.00;64.30;;;;;;6128406;23;20009;-85
2022/03/13 08:30:03;;;;;;;11.80;8.50;;;10.00;64.10;;;;;;6128650;23;20446;-84
2022/03/13 08:32:29;;;;;;;19.73;9.50;;;10.00;63.50;;;;;;6103886;23;20064;-85
2022/03/13 08:34:55;;;;;;;16.08;8.60;;;10.10;64.20;;;;;;6104064;23;20049;-84
2022/03/13 08:37:20;;;;;;;13.32;7.93;;;10.10;64.10;;;;;;6079548;23;20020;-84
2022/03/13 08:39:46;;;;;;;14.38;8.43;;;10.10;63.80;;;;;;6079530;23;20068;-86
2022/03/13 08:42:13;;;;;;;14.95;8.38;;;10.10;63.50;;;;;;6128687;23;20005;-83
2022/03/13 08:44:38;;;;;;;12.57;8.88;;;10.10;63.50;;;;;;6104248;23;20014;-84
2022/03/13 08:47:04;;;;;;;14.27;9.27;;;10.20;63.50;;;;;;6129253;23;20145;-85
2022/03/13 08:49:30;;;;;;;14.40;8.85;;;10.10;63.20;;;;;;6131661;23;20379;-84
2022/03/13 08:51:56;;;;;;;13.23;8.90;;;10.20;63.10;;;;;;6128317;23;20428;-84
2022/03/13 08:54:22;;;;;;;13.00;8.88;;;10.10;63.30;;;;;;6127810;23;20016;-84
2022/03/13 08:56:50;;;;;;;16.05;8.82;;;10.20;62.90;;;;;;6104089;23;20100;-84
2022/03/13 08:59:20;;;;;;;14.35;9.38;;;10.20;62.90;;;;;;6128755;23;20069;-84
2022/03/13 09:01:46;;;;;;;14.43;9.48;;;10.20;62.90;;;;;;6128152;23;20009;-85
2022/03/13 09:04:11;;;;;;;14.40;8.98;;;10.20;63.10;;;;;;6104114;23;20005;-84
2022/03/13 09:06:39;;;;;;;16.95;8.73;;;10.30;63.40;;;;;;6103813;23;20043;-85
2022/03/13 09:09:05;;;;;;;15.48;8.70;;;10.30;63.90;;;;;;6129336;23;20029;-85
2022/03/13 09:11:33;;;;;;;14.60;8.82;;;10.40;63.30;;;;;;6128473;23;20002;-85
2022/03/13 09:13:59;;;;;;;13.77;9.00;;;10.30;62.40;;;;;;6103764;23;20009;-84
2022/03/13 09:16:26;;;;;;;13.32;9.68;;;10.40;62.70;;;;;;6127621;23;20069;-85
2022/03/13 09:18:53;;;;;;;16.55;9.25;;;10.40;62.60;;;;;;6131106;23;20006;-85
2022/03/13 09:21:18;;;;;;;16.30;9.70;;;10.40;61.30;;;;;;6128217;23;20133;-85
2022/03/13 09:23:44;;;;;;;14.05;9.45;;;10.40;61.60;;;;;;6103463;23;20030;-85
2022/03/13 09:26:10;;;;;;;16.95;8.85;;;10.40;61.60;;;;;;6103659;23;20050;-85
2022/03/13 09:28:36;;;;;;;15.38;9.65;;;10.50;61.40;;;;;;6154684;23;20420;-85
2022/03/13 09:31:02;;;;;;;14.43;9.23;;;10.60;62.00;;;;;;6127393;23;20005;-85
2022/03/13 09:33:27;;;;;;;15.18;9.13;;;10.60;62.40;;;;;;6128940;23;20006;-84
2022/03/13 09:35:54;;;;;;;12.85;9.15;;;10.60;62.90;;;;;;6127449;23;20077;-85
2022/03/13 09:38:20;;;;;;;15.07;9.00;;;10.70;62.60;;;;;;6128495;23;20372;-86
2022/03/13 09:40:45;;;;;;;13.65;9.27;;;10.80;61.20;;;;;;6103995;23;20021;-86
2022/03/13 09:43:11;;;;;;;14.52;8.95;;;10.90;61.80;;;;;;6154609;23;20006;-85
2022/03/13 09:45:37;;;;;;;19.67;9.52;;;11.00;62.40;;;;;;6104720;23;20033;-85
2022/03/13 09:48:03;;;;;;;19.75;10.57;;;11.10;62.60;;;;;;6111661;23;20384;-83
2022/03/13 09:50:30;;;;;;;14.82;8.73;;;11.20;62.30;;;;;;6166827;23;20005;-86
2022/03/13 09:52:56;;;;;;;15.32;9.00;;;11.30;62.70;;;;;;6131946;23;20002;-84
2022/03/13 09:55:22;;;;;;;14.98;8.68;;;11.40;62.40;;;;;;6131505;23;20427;-85
2022/03/13 09:57:48;;;;;;;13.68;9.32;;;11.50;61.60;;;;;;6131664;23;20008;-84
2022/03/13 10:00:20;;;;;;;14.02;9.48;;;11.60;62.00;;;;;;6105932;23;20021;-85
2022/03/13 10:02:46;;;;;;;20.20;10.27;;;11.60;61.90;;;;;;6156417;23;20006;-87
2022/03/13 10:05:14;;;;;;;14.40;8.65;;;11.70;61.50;;;;;;6129120;23;20006;-83
2022/03/13 10:07:56;;;;;;;15.73;9.32;;;11.80;61.90;;;;;;6129679;23;20006;-83
2022/03/13 10:10:23;;;;;;;14.10;9.50;;;12.00;62.20;;;;;;6154364;23;20423;-83
2022/03/13 10:12:49;;;;;;;16.35;10.25;;;12.10;62.30;;;;;;6130467;23;20006;-84
2022/03/13 10:15:15;;;;;;;14.07;10.35;;;12.20;62.20;;;;;;6157195;23;20010;-82
2022/03/13 10:17:42;;;;;;;13.85;9.80;;;12.30;62.70;;;;;;6154373;23;20010;-86
2022/03/13 10:20:23;;;;;;;14.52;9.63;;;12.30;61.00;;;;;;6163162;23;20029;-84
2022/03/13 10:23:27;;;;;;;14.40;9.50;;;12.40;61.40;;;;;;6180019;23;20001;-85
2022/03/13 10:25:53;;;;;;;13.52;9.23;;;12.60;61.30;;;;;;6178829;23;19994;-87
2022/03/13 10:28:24;;;;;;;15.02;9.50;;;12.70;60.70;;;;;;6156646;23;20177;-84
2022/03/13 10:30:59;;;;;;;15.02;10.13;;;12.70;61.20;;;;;;6156973;23;20001;-89
2022/03/13 10:33:35;;;;;;;16.08;9.55;;;12.80;60.10;;;;;;6181514;23;20064;-84
2022/03/13 10:36:12;;;;;;;13.50;9.55;;;12.80;60.50;;;;;;6148068;23;20014;-83
2022/03/13 10:38:38;;;;;;;15.77;9.93;;;12.90;60.80;;;;;;6132082;23;20332;-84
2022/03/13 10:41:12;;;;;;;15.30;9.75;;;13.00;60.60;;;;;;6131274;23;20089;-83
2022/03/13 10:43:51;;;;;;;14.00;9.63;;;13.00;60.90;;;;;;6155496;23;20463;-84
2022/03/13 10:46:34;;;;;;;15.27;10.57;;;13.10;60.70;;;;;;6154205;23;20016;-85
2022/03/13 10:49:01;;;;;;;13.77;9.88;;;13.20;60.00;;;;;;6130112;23;20001;-83
2022/03/13 10:51:32;;;;;;;14.52;9.70;;;13.30;60.60;;;;;;6131014;23;20005;-87
2022/03/13 10:53:58;;;;;;;12.98;9.13;;;13.50;60.80;;;;;;6160584;23;19988;-85
2022/03/13 10:56:27;;;;;;;15.30;10.23;;;13.50;61.50;;;;;;6162815;23;20327;-84
2022/03/13 10:58:52;;;;;;;14.90;10.05;;;13.70;61.70;;;;;;6158871;23;20029;-84
2022/03/13 11:01:20;;;;;;;15.63;10.63;;;13.80;61.30;;;;;;6134089;23;20006;-85
2022/03/13 11:03:52;;;;;;;15.18;10.57;;;13.90;62.00;;;;;;6110408;23;20013;-83
2022/03/13 11:06:19;;;;;;;19.17;11.27;;;14.10;61.20;;;;;;6135173;23;20005;-86
2022/03/13 11:08:45;;;;;;;17.35;11.30;;;14.20;61.20;;;;;;6132230;23;20444;-84
2022/03/13 11:11:15;;;;;;;14.75;10.55;;;14.40;60.00;;;;;;6131753;23;20085;-84
2022/03/13 11:13:42;;;;;;;15.70;11.20;;;14.50;59.80;;;;;;6110816;23;20171;-81
2022/03/13 11:16:11;;;;;;;17.48;10.93;;;14.60;60.50;;;;;;6135213;23;20032;-82
2022/03/13 11:18:38;;;;;;;21.77;12.00;;;14.80;60.30;;;;;;6162580;23;20002;-81
2022/03/13 11:21:06;;;;;;;16.10;10.70;;;14.90;60.60;;;;;;6156294;23;20009;-82
2022/03/13 11:23:36;;;;;;;17.35;11.32;;;15.10;61.00;;;;;;6133328;23;20001;-83
2022/03/13 11:26:04;;;;;;;15.98;11.50;;;15.20;60.40;;;;;;6110341;23;20308;-82
2022/03/13 11:28:31;;;;;;;14.38;10.32;;;15.30;58.70;;;;;;6106733;23;20415;-82
2022/03/13 11:30:57;;;;;;;15.88;11.30;;;15.40;59.20;;;;;;6155899;23;20443;-82
2022/03/13 11:33:45;;;;;;;16.13;9.98;;;15.50;59.20;;;;;;6129969;23;19997;-83
2022/03/13 11:36:30;;;;;;;13.65;9.95;;;15.60;59.20;;;;;;6131070;23;20072;-85
2022/03/13 11:38:58;;;;;;;12.98;9.80;;;15.70;58.10;;;;;;6128974;23;19998;-83
2022/03/13 11:41:43;;;;;;;13.25;9.70;;;15.80;58.80;;;;;;6153780;23;20006;-82
2022/03/13 11:44:18;;;;;;;14.75;10.05;;;15.90;59.80;;;;;;6128909;23;20002;-83
2022/03/13 11:46:45;;;;;;;13.75;8.63;;;16.00;59.60;;;;;;6156637;23;20005;-82
2022/03/13 11:49:16;;;;;;;11.57;8.27;;;16.10;58.60;;;;;;6107132;23;20016;-82
2022/03/13 11:51:45;;;;;;;14.70;8.48;;;16.20;58.40;;;;;;6133819;23;20053;-82
2022/03/13 11:54:15;;;;;;;12.00;7.93;;;16.30;57.90;;;;;;6157531;23;20006;-82
2022/03/13 11:56:48;;;;;;;11.43;8.13;;;16.40;57.70;;;;;;6132390;23;20009;-82
2022/03/13 11:59:19;;;;;;;11.65;7.40;;;16.50;56.90;;;;;;6130502;23;20014;-82
2022/03/13 12:01:45;;;;;;;9.27;6.95;;;16.60;57.30;;;;;;6130522;23;20010;-82
2022/03/13 12:04:11;;;;;;;11.63;7.78;;;16.70;57.00;;;;;;6130436;23;20005;-82
2022/03/13 12:06:57;;;;;;;12.20;8.65;;;16.80;56.90;;;;;;6130903;23;20016;-81
2022/03/13 12:09:29;;;;;;;16.52;8.32;;;16.80;55.90;;;;;;6156242;23;20076;-81
2022/03/13 12:12:21;;;;;;;11.93;8.38;;;16.90;56.20;;;;;;6155508;23;20116;-81
2022/03/13 12:15:05;;;;;;;12.77;8.10;;;16.90;57.00;;;;;;6156294;23;20002;-81
2022/03/13 12:17:46;;;;;;;11.38;8.30;;;17.00;58.00;;;;;;6156675;23;20072;-82
2022/03/13 12:20:26;;;;;;;12.05;8.60;;;17.20;56.60;;;;;;6130306;23;20061;-82
2022/03/13 12:22:59;;;;;;;10.32;7.85;;;17.20;57.40;;;;;;6108880;23;20372;-82
2022/03/13 12:25:26;;;;;;;10.20;7.63;;;17.40;57.10;;;;;;6133160;23;20002;-82
2022/03/13 12:27:54;;;;;;;12.63;8.82;;;17.50;56.30;;;;;;6156334;23;20004;-82
2022/03/13 12:30:29;;;;;;;12.77;8.10;;;17.60;56.60;;;;;;6081810;23;20017;-81
2022/03/13 12:33:16;;;;;;;10.52;8.13;;;17.70;55.90;;;;;;6130113;23;19994;-81
2022/03/13 12:35:56;;;;;;;11.48;8.15;;;17.70;55.50;;;;;;6129204;23;20065;-84
2022/03/13 12:38:33;;;;;;;10.98;7.70;;;17.80;54.60;;;;;;6128998;23;20005;-83